sensor_id;sensor_type;location;lat;lon;timestamp;P1;durP1;ratioP1;P2;durP2;ratioP2
19137;SDS011;68178;52.188;5.598;2023-10-31T00:01:12;0.00;;;0.00;;
19137;SDS011;68178;52.188;5.598;2023-10-31T00:03:38;0.03;;;0.03;;
19137;SDS011;68178;52.188;5.598;2023-10-31T00:06:05;0.00;;;0.00;;
19137;SDS011;68178;52.188;5.598;2023-10-31T00:08:31;0.00;;;0.00;;
19137;SDS011;68178;52.188;5.598;2023-10-31T00:10:56;0.20;;;0.20;;
19137;SDS011;68178;52.188;5.598;2023-10-31T00:13:22;3.42;;;0.43;;
19137;SDS011;68178;52.188;5.598;2023-10-31T00:15:48;0.13;;;0.13;;
19137;SDS011;68178;52.188;5.598;2023-10-31T00:18:13;0.00;;;0.00;;
19137;SDS011;68178;52.188;5.598;2023-10-31T00:20:40;0.08;;;0.08;;
19137;SDS011;68178;52.188;5.598;2023-10-31T00:23:05;0.28;;;0.28;;
19137;SDS011;68178;52.188;5.598;2023-10-31T00:25:31;0.08;;;0.08;;
19137;SDS011;68178;52.188;5.598;2023-10-31T00:27:56;0.40;;;0.40;;
19137;SDS011;68178;52.188;5.598;2023-10-31T00:30:22;0.10;;;0.10;;
19137;SDS011;68178;52.188;5.598;2023-10-31T00:32:47;0.17;;;0.17;;
19137;SDS011;68178;52.188;5.598;2023-10-31T00:35:13;0.00;;;0.00;;
19137;SDS011;68178;52.188;5.598;2023-10-31T00:37:41;0.00;;;0.00;;
19137;SDS011;68178;52.188;5.598;2023-10-31T00:40:07;0.03;;;0.03;;
19137;SDS011;68178;52.188;5.598;2023-10-31T00:42:36;0.10;;;0.10;;
19137;SDS011;68178;52.188;5.598;2023-10-31T00:45:02;2.30;;;0.98;;
19137;SDS011;68178;52.188;5.598;2023-10-31T00:47:28;0.50;;;0.50;;
19137;SDS011;68178;52.188;5.598;2023-10-31T00:49:53;0.38;;;0.38;;
19137;SDS011;68178;52.188;5.598;2023-10-31T00:52:19;2.53;;;1.77;;
19137;SDS011;68178;52.188;5.598;2023-10-31T00:54:44;0.00;;;0.00;;
19137;SDS011;68178;52.188;5.598;2023-10-31T00:57:10;0.10;;;0.10;;
19137;SDS011;68178;52.188;5.598;2023-10-31T00:59:35;0.10;;;0.00;;
19137;SDS011;68178;52.188;5.598;2023-10-31T01:02:02;0.30;;;0.30;;
19137;SDS011;68178;52.188;5.598;2023-10-31T01:04:28;0.17;;;0.17;;
19137;SDS011;68178;52.188;5.598;2023-10-31T01:06:53;0.40;;;0.40;;
19137;SDS011;68178;52.188;5.598;2023-10-31T01:09:19;0.47;;;0.47;;
19137;SDS011;68178;52.188;5.598;2023-10-31T01:11:44;0.60;;;0.17;;
19137;SDS011;68178;52.188;5.598;2023-10-31T01:14:10;1.50;;;1.25;;
19137;SDS011;68178;52.188;5.598;2023-10-31T01:16:35;0.65;;;0.63;;
19137;SDS011;68178;52.188;5.598;2023-10-31T01:19:01;0.85;;;0.63;;
19137;SDS011;68178;52.188;5.598;2023-10-31T01:21:26;3.70;;;1.00;;
19137;SDS011;68178;52.188;5.598;2023-10-31T01:23:52;0.60;;;0.60;;
19137;SDS011;68178;52.188;5.598;2023-10-31T01:26:17;0.73;;;0.35;;
19137;SDS011;68178;52.188;5.598;2023-10-31T01:28:43;0.70;;;0.70;;
19137;SDS011;68178;52.188;5.598;2023-10-31T01:31:08;1.77;;;0.88;;
19137;SDS011;68178;52.188;5.598;2023-10-31T01:33:34;2.13;;;1.92;;
19137;SDS011;68178;52.188;5.598;2023-10-31T01:36:00;2.95;;;1.95;;
19137;SDS011;68178;52.188;5.598;2023-10-31T01:38:25;2.10;;;1.85;;
19137;SDS011;68178;52.188;5.598;2023-10-31T01:40:54;2.00;;;1.50;;
19137;SDS011;68178;52.188;5.598;2023-10-31T01:43:29;1.95;;;1.85;;
19137;SDS011;68178;52.188;5.598;2023-10-31T01:45:56;2.08;;;1.95;;
19137;SDS011;68178;52.188;5.598;2023-10-31T01:48:21;1.75;;;1.65;;
19137;SDS011;68178;52.188;5.598;2023-10-31T01:50:48;3.33;;;0.95;;
19137;SDS011;68178;52.188;5.598;2023-10-31T01:53:15;5.18;;;2.50;;
19137;SDS011;68178;52.188;5.598;2023-10-31T01:55:40;2.20;;;1.00;;
19137;SDS011;68178;52.188;5.598;2023-10-31T01:58:06;1.08;;;0.90;;
19137;SDS011;68178;52.188;5.598;2023-10-31T02:00:31;1.95;;;1.52;;
19137;SDS011;68178;52.188;5.598;2023-10-31T02:02:57;0.65;;;0.65;;
19137;SDS011;68178;52.188;5.598;2023-10-31T02:05:23;0.70;;;0.45;;
19137;SDS011;68178;52.188;5.598;2023-10-31T02:07:51;0.22;;;0.22;;
19137;SDS011;68178;52.188;5.598;2023-10-31T02:10:17;0.73;;;0.73;;
19137;SDS011;68178;52.188;5.598;2023-10-31T02:12:51;0.32;;;0.32;;
19137;SDS011;68178;52.188;5.598;2023-10-31T02:15:17;0.38;;;0.38;;
19137;SDS011;68178;52.188;5.598;2023-10-31T02:17:42;0.25;;;0.25;;
19137;SDS011;68178;52.188;5.598;2023-10-31T02:20:08;0.05;;;0.05;;
19137;SDS011;68178;52.188;5.598;2023-10-31T02:22:36;0.30;;;0.30;;
19137;SDS011;68178;52.188;5.598;2023-10-31T02:25:02;0.15;;;0.15;;
19137;SDS011;68178;52.188;5.598;2023-10-31T02:27:28;0.10;;;0.10;;
19137;SDS011;68178;52.188;5.598;2023-10-31T02:29:53;0.38;;;0.38;;
19137;SDS011;68178;52.188;5.598;2023-10-31T02:32:19;1.02;;;0.85;;
19137;SDS011;68178;52.188;5.598;2023-10-31T02:34:44;0.95;;;0.95;;
19137;SDS011;68178;52.188;5.598;2023-10-31T02:37:10;1.75;;;0.57;;
19137;SDS011;68178;52.188;5.598;2023-10-31T02:39:36;0.40;;;0.40;;
19137;SDS011;68178;52.188;5.598;2023-10-31T02:42:02;0.25;;;0.25;;
19137;SDS011;68178;52.188;5.598;2023-10-31T02:44:28;1.38;;;0.82;;
19137;SDS011;68178;52.188;5.598;2023-10-31T02:46:53;0.98;;;0.93;;
19137;SDS011;68178;52.188;5.598;2023-10-31T02:49:19;1.38;;;0.82;;
19137;SDS011;68178;52.188;5.598;2023-10-31T02:51:45;1.77;;;1.65;;
19137;SDS011;68178;52.188;5.598;2023-10-31T02:54:10;0.88;;;0.88;;
19137;SDS011;68178;52.188;5.598;2023-10-31T02:56:36;0.90;;;0.80;;
19137;SDS011;68178;52.188;5.598;2023-10-31T02:59:02;0.52;;;0.52;;
19137;SDS011;68178;52.188;5.598;2023-10-31T03:01:28;3.92;;;0.98;;
19137;SDS011;68178;52.188;5.598;2023-10-31T03:03:54;11.77;;;1.15;;
19137;SDS011;68178;52.188;5.598;2023-10-31T03:06:20;1.13;;;1.05;;
19137;SDS011;68178;52.188;5.598;2023-10-31T03:08:46;1.20;;;1.17;;
19137;SDS011;68178;52.188;5.598;2023-10-31T03:11:20;3.80;;;2.72;;
19137;SDS011;68178;52.188;5.598;2023-10-31T03:13:49;1.95;;;1.83;;
19137;SDS011;68178;52.188;5.598;2023-10-31T03:16:15;2.85;;;2.40;;
19137;SDS011;68178;52.188;5.598;2023-10-31T03:18:41;3.47;;;3.10;;
19137;SDS011;68178;52.188;5.598;2023-10-31T03:21:06;3.88;;;2.70;;
19137;SDS011;68178;52.188;5.598;2023-10-31T03:23:32;1.55;;;1.45;;
19137;SDS011;68178;52.188;5.598;2023-10-31T03:25:58;5.15;;;1.67;;
19137;SDS011;68178;52.188;5.598;2023-10-31T03:28:23;3.35;;;2.78;;
19137;SDS011;68178;52.188;5.598;2023-10-31T03:30:49;4.05;;;3.60;;
19137;SDS011;68178;52.188;5.598;2023-10-31T03:33:16;3.47;;;2.53;;
19137;SDS011;68178;52.188;5.598;2023-10-31T03:35:41;2.00;;;1.85;;
19137;SDS011;68178;52.188;5.598;2023-10-31T03:38:08;1.45;;;1.23;;
19137;SDS011;68178;52.188;5.598;2023-10-31T03:40:33;3.63;;;1.95;;
19137;SDS011;68178;52.188;5.598;2023-10-31T03:42:59;3.72;;;1.45;;
19137;SDS011;68178;52.188;5.598;2023-10-31T03:45:24;4.82;;;1.48;;
19137;SDS011;68178;52.188;5.598;2023-10-31T03:47:50;1.08;;;1.08;;
19137;SDS011;68178;52.188;5.598;2023-10-31T03:50:18;1.30;;;1.30;;
19137;SDS011;68178;52.188;5.598;2023-10-31T03:52:43;2.17;;;0.57;;
19137;SDS011;68178;52.188;5.598;2023-10-31T03:55:09;5.65;;;1.10;;
19137;SDS011;68178;52.188;5.598;2023-10-31T03:57:34;0.20;;;0.20;;
19137;SDS011;68178;52.188;5.598;2023-10-31T04:00:00;0.85;;;0.85;;
19137;SDS011;68178;52.188;5.598;2023-10-31T04:02:26;0.38;;;0.38;;
19137;SDS011;68178;52.188;5.598;2023-10-31T04:04:51;1.08;;;1.08;;
19137;SDS011;68178;52.188;5.598;2023-10-31T04:07:17;0.98;;;0.85;;
19137;SDS011;68178;52.188;5.598;2023-10-31T04:09:42;0.10;;;0.10;;
19137;SDS011;68178;52.188;5.598;2023-10-31T04:12:08;0.65;;;0.65;;
19137;SDS011;68178;52.188;5.598;2023-10-31T04:14:34;0.77;;;0.77;;
19137;SDS011;68178;52.188;5.598;2023-10-31T04:16:59;0.47;;;0.45;;
19137;SDS011;68178;52.188;5.598;2023-10-31T04:19:25;0.47;;;0.47;;
19137;SDS011;68178;52.188;5.598;2023-10-31T04:21:52;0.57;;;0.50;;
19137;SDS011;68178;52.188;5.598;2023-10-31T04:24:19;0.35;;;0.32;;
19137;SDS011;68178;52.188;5.598;2023-10-31T04:26:44;0.10;;;0.10;;
19137;SDS011;68178;52.188;5.598;2023-10-31T04:29:10;0.20;;;0.20;;
19137;SDS011;68178;52.188;5.598;2023-10-31T04:31:38;0.13;;;0.13;;
19137;SDS011;68178;52.188;5.598;2023-10-31T04:34:04;0.43;;;0.43;;
19137;SDS011;68178;52.188;5.598;2023-10-31T04:36:29;0.10;;;0.10;;
19137;SDS011;68178;52.188;5.598;2023-10-31T04:38:55;0.20;;;0.20;;
19137;SDS011;68178;52.188;5.598;2023-10-31T04:41:21;0.10;;;0.10;;
19137;SDS011;68178;52.188;5.598;2023-10-31T04:43:46;2.25;;;1.35;;
19137;SDS011;68178;52.188;5.598;2023-10-31T04:46:12;0.20;;;0.20;;
19137;SDS011;68178;52.188;5.598;2023-10-31T04:48:37;0.00;;;0.00;;
19137;SDS011;68178;52.188;5.598;2023-10-31T04:51:03;0.10;;;0.10;;
19137;SDS011;68178;52.188;5.598;2023-10-31T04:53:29;0.45;;;0.45;;
19137;SDS011;68178;52.188;5.598;2023-10-31T04:55:54;0.35;;;0.35;;
19137;SDS011;68178;52.188;5.598;2023-10-31T04:58:20;0.00;;;0.00;;
19137;SDS011;68178;52.188;5.598;2023-10-31T05:00:46;4.05;;;1.05;;
19137;SDS011;68178;52.188;5.598;2023-10-31T05:03:12;0.10;;;0.10;;
19137;SDS011;68178;52.188;5.598;2023-10-31T05:05:37;0.10;;;0.10;;
19137;SDS011;68178;52.188;5.598;2023-10-31T05:08:03;0.13;;;0.10;;
19137;SDS011;68178;52.188;5.598;2023-10-31T05:10:28;0.00;;;0.00;;
19137;SDS011;68178;52.188;5.598;2023-10-31T05:12:54;0.05;;;0.05;;
19137;SDS011;68178;52.188;5.598;2023-10-31T05:15:20;0.20;;;0.20;;
19137;SDS011;68178;52.188;5.598;2023-10-31T05:17:45;0.00;;;0.00;;
19137;SDS011;68178;52.188;5.598;2023-10-31T05:20:11;0.00;;;0.00;;
19137;SDS011;68178;52.188;5.598;2023-10-31T05:22:36;0.08;;;0.08;;
19137;SDS011;68178;52.188;5.598;2023-10-31T05:25:02;0.00;;;0.00;;
19137;SDS011;68178;52.188;5.598;2023-10-31T05:27:28;0.00;;;0.00;;
19137;SDS011;68178;52.188;5.598;2023-10-31T05:29:54;0.00;;;0.00;;
19137;SDS011;68178;52.188;5.598;2023-10-31T05:32:19;0.15;;;0.15;;
19137;SDS011;68178;52.188;5.598;2023-10-31T05:34:45;0.08;;;0.08;;
19137;SDS011;68178;52.188;5.598;2023-10-31T05:37:10;0.43;;;0.43;;
19137;SDS011;68178;52.188;5.598;2023-10-31T05:39:36;0.13;;;0.13;;
19137;SDS011;68178;52.188;5.598;2023-10-31T05:42:02;0.00;;;0.00;;
19137;SDS011;68178;52.188;5.598;2023-10-31T05:44:28;0.10;;;0.10;;
19137;SDS011;68178;52.188;5.598;2023-10-31T05:46:53;0.00;;;0.00;;
19137;SDS011;68178;52.188;5.598;2023-10-31T05:49:19;0.10;;;0.10;;
19137;SDS011;68178;52.188;5.598;2023-10-31T05:51:49;0.03;;;0.03;;
19137;SDS011;68178;52.188;5.598;2023-10-31T05:54:16;0.10;;;0.10;;
19137;SDS011;68178;52.188;5.598;2023-10-31T05:56:42;0.00;;;0.00;;
19137;SDS011;68178;52.188;5.598;2023-10-31T05:59:08;0.10;;;0.10;;
19137;SDS011;68178;52.188;5.598;2023-10-31T06:01:33;0.00;;;0.00;;
19137;SDS011;68178;52.188;5.598;2023-10-31T06:03:59;0.63;;;0.63;;
19137;SDS011;68178;52.188;5.598;2023-10-31T06:06:24;0.00;;;0.00;;
19137;SDS011;68178;52.188;5.598;2023-10-31T06:08:50;0.10;;;0.10;;
19137;SDS011;68178;52.188;5.598;2023-10-31T06:11:15;0.00;;;0.00;;
19137;SDS011;68178;52.188;5.598;2023-10-31T06:13:41;0.10;;;0.10;;
19137;SDS011;68178;52.188;5.598;2023-10-31T06:16:07;0.20;;;0.20;;
19137;SDS011;68178;52.188;5.598;2023-10-31T06:18:33;0.30;;;0.30;;
19137;SDS011;68178;52.188;5.598;2023-10-31T06:20:59;6.82;;;0.47;;
19137;SDS011;68178;52.188;5.598;2023-10-31T06:23:25;0.00;;;0.00;;
19137;SDS011;68178;52.188;5.598;2023-10-31T06:25:50;0.55;;;0.55;;
19137;SDS011;68178;52.188;5.598;2023-10-31T06:28:16;0.30;;;0.30;;
19137;SDS011;68178;52.188;5.598;2023-10-31T06:30:41;0.28;;;0.28;;
19137;SDS011;68178;52.188;5.598;2023-10-31T06:33:07;0.90;;;0.47;;
19137;SDS011;68178;52.188;5.598;2023-10-31T06:35:33;0.57;;;0.57;;
19137;SDS011;68178;52.188;5.598;2023-10-31T06:38:00;2.63;;;1.38;;
19137;SDS011;68178;52.188;5.598;2023-10-31T06:40:26;0.57;;;0.55;;
19137;SDS011;68178;52.188;5.598;2023-10-31T06:42:54;0.25;;;0.25;;
19137;SDS011;68178;52.188;5.598;2023-10-31T06:45:19;1.75;;;0.65;;
19137;SDS011;68178;52.188;5.598;2023-10-31T06:47:46;0.40;;;0.40;;
19137;SDS011;68178;52.188;5.598;2023-10-31T06:50:11;0.75;;;0.75;;
19137;SDS011;68178;52.188;5.598;2023-10-31T06:52:37;0.50;;;0.50;;
19137;SDS011;68178;52.188;5.598;2023-10-31T06:55:02;0.70;;;0.70;;
19137;SDS011;68178;52.188;5.598;2023-10-31T06:57:28;1.80;;;0.50;;
19137;SDS011;68178;52.188;5.598;2023-10-31T06:59:53;3.40;;;1.15;;
19137;SDS011;68178;52.188;5.598;2023-10-31T07:02:19;0.50;;;0.50;;
19137;SDS011;68178;52.188;5.598;2023-10-31T07:04:45;0.32;;;0.32;;
19137;SDS011;68178;52.188;5.598;2023-10-31T07:07:10;0.70;;;0.70;;
19137;SDS011;68178;52.188;5.598;2023-10-31T07:09:36;0.35;;;0.35;;
19137;SDS011;68178;52.188;5.598;2023-10-31T07:12:01;0.82;;;0.68;;
19137;SDS011;68178;52.188;5.598;2023-10-31T07:14:27;1.35;;;0.88;;
19137;SDS011;68178;52.188;5.598;2023-10-31T07:16:52;2.10;;;1.38;;
19137;SDS011;68178;52.188;5.598;2023-10-31T07:19:18;0.30;;;0.30;;
19137;SDS011;68178;52.188;5.598;2023-10-31T07:21:43;0.43;;;0.30;;
19137;SDS011;68178;52.188;5.598;2023-10-31T07:24:09;0.38;;;0.38;;
19137;SDS011;68178;52.188;5.598;2023-10-31T07:26:35;0.10;;;0.10;;
19137;SDS011;68178;52.188;5.598;2023-10-31T07:29:00;0.93;;;0.10;;
19137;SDS011;68178;52.188;5.598;2023-10-31T07:31:26;0.00;;;0.00;;
19137;SDS011;68178;52.188;5.598;2023-10-31T07:33:52;0.60;;;0.45;;
19137;SDS011;68178;52.188;5.598;2023-10-31T07:36:17;0.80;;;0.28;;
19137;SDS011;68178;52.188;5.598;2023-10-31T07:38:43;2.20;;;0.45;;
19137;SDS011;68178;52.188;5.598;2023-10-31T07:41:08;0.10;;;0.10;;
19137;SDS011;68178;52.188;5.598;2023-10-31T07:43:34;0.50;;;0.50;;
19137;SDS011;68178;52.188;5.598;2023-10-31T07:46:00;1.08;;;0.38;;
19137;SDS011;68178;52.188;5.598;2023-10-31T07:48:25;0.13;;;0.13;;
19137;SDS011;68178;52.188;5.598;2023-10-31T07:50:51;0.00;;;0.00;;
19137;SDS011;68178;52.188;5.598;2023-10-31T07:53:16;0.20;;;0.20;;
19137;SDS011;68178;52.188;5.598;2023-10-31T07:55:42;0.30;;;0.30;;
19137;SDS011;68178;52.188;5.598;2023-10-31T07:58:08;0.35;;;0.35;;
19137;SDS011;68178;52.188;5.598;2023-10-31T08:00:34;0.00;;;0.00;;
19137;SDS011;68178;52.188;5.598;2023-10-31T08:03:00;0.30;;;0.30;;
19137;SDS011;68178;52.188;5.598;2023-10-31T08:05:33;0.00;;;0.00;;
19137;SDS011;68178;52.188;5.598;2023-10-31T08:07:58;0.32;;;0.20;;
19137;SDS011;68178;52.188;5.598;2023-10-31T08:10:27;0.25;;;0.25;;
19137;SDS011;68178;52.188;5.598;2023-10-31T08:12:52;0.00;;;0.00;;
19137;SDS011;68178;52.188;5.598;2023-10-31T08:15:18;0.30;;;0.25;;
19137;SDS011;68178;52.188;5.598;2023-10-31T08:17:43;0.20;;;0.10;;
19137;SDS011;68178;52.188;5.598;2023-10-31T08:20:09;0.68;;;0.68;;
19137;SDS011;68178;52.188;5.598;2023-10-31T08:22:36;0.20;;;0.20;;
19137;SDS011;68178;52.188;5.598;2023-10-31T08:25:02;0.00;;;0.00;;
19137;SDS011;68178;52.188;5.598;2023-10-31T08:27:28;0.40;;;0.40;;
19137;SDS011;68178;52.188;5.598;2023-10-31T08:29:53;0.20;;;0.20;;
19137;SDS011;68178;52.188;5.598;2023-10-31T08:32:19;0.30;;;0.30;;
19137;SDS011;68178;52.188;5.598;2023-10-31T08:34:44;6.65;;;1.83;;
19137;SDS011;68178;52.188;5.598;2023-10-31T08:37:10;0.80;;;0.30;;
19137;SDS011;68178;52.188;5.598;2023-10-31T08:39:35;0.75;;;0.52;;
19137;SDS011;68178;52.188;5.598;2023-10-31T08:42:01;0.70;;;0.65;;
19137;SDS011;68178;52.188;5.598;2023-10-31T08:44:27;0.35;;;0.30;;
19137;SDS011;68178;52.188;5.598;2023-10-31T08:46:52;0.82;;;0.80;;
19137;SDS011;68178;52.188;5.598;2023-10-31T08:49:18;0.45;;;0.45;;
19137;SDS011;68178;52.188;5.598;2023-10-31T08:51:44;0.90;;;0.50;;
19137;SDS011;68178;52.188;5.598;2023-10-31T08:54:10;0.30;;;0.30;;
19137;SDS011;68178;52.188;5.598;2023-10-31T08:56:38;0.73;;;0.65;;
19137;SDS011;68178;52.188;5.598;2023-10-31T08:59:04;0.20;;;0.20;;
19137;SDS011;68178;52.188;5.598;2023-10-31T09:01:29;0.20;;;0.20;;
19137;SDS011;68178;52.188;5.598;2023-10-31T09:03:55;1.20;;;0.55;;
19137;SDS011;68178;52.188;5.598;2023-10-31T09:06:21;0.40;;;0.30;;
19137;SDS011;68178;52.188;5.598;2023-10-31T09:08:46;0.63;;;0.63;;
19137;SDS011;68178;52.188;5.598;2023-10-31T09:11:12;22.73;;;3.60;;
19137;SDS011;68178;52.188;5.598;2023-10-31T09:13:37;0.38;;;0.20;;
19137;SDS011;68178;52.188;5.598;2023-10-31T09:16:03;0.08;;;0.08;;
19137;SDS011;68178;52.188;5.598;2023-10-31T09:18:29;0.52;;;0.52;;
19137;SDS011;68178;52.188;5.598;2023-10-31T09:20:54;0.00;;;0.00;;
19137;SDS011;68178;52.188;5.598;2023-10-31T09:23:20;0.47;;;0.45;;
19137;SDS011;68178;52.188;5.598;2023-10-31T09:25:46;0.20;;;0.20;;
19137;SDS011;68178;52.188;5.598;2023-10-31T09:28:11;0.88;;;0.65;;
19137;SDS011;68178;52.188;5.598;2023-10-31T09:30:37;1.13;;;0.63;;
19137;SDS011;68178;52.188;5.598;2023-10-31T09:33:02;0.03;;;0.03;;
19137;SDS011;68178;52.188;5.598;2023-10-31T09:35:28;0.30;;;0.30;;
19137;SDS011;68178;52.188;5.598;2023-10-31T09:37:54;0.32;;;0.32;;
19137;SDS011;68178;52.188;5.598;2023-10-31T09:40:20;0.30;;;0.30;;
19137;SDS011;68178;52.188;5.598;2023-10-31T09:42:47;1.08;;;0.45;;
19137;SDS011;68178;52.188;5.598;2023-10-31T09:45:13;0.65;;;0.65;;
19137;SDS011;68178;52.188;5.598;2023-10-31T09:47:39;2.03;;;1.90;;
19137;SDS011;68178;52.188;5.598;2023-10-31T09:50:06;0.82;;;0.82;;
19137;SDS011;68178;52.188;5.598;2023-10-31T09:52:35;1.23;;;0.77;;
19137;SDS011;68178;52.188;5.598;2023-10-31T09:55:01;3.10;;;0.70;;
19137;SDS011;68178;52.188;5.598;2023-10-31T09:57:27;0.38;;;0.38;;
19137;SDS011;68178;52.188;5.598;2023-10-31T09:59:53;2.00;;;1.83;;
19137;SDS011;68178;52.188;5.598;2023-10-31T10:02:19;0.00;;;0.00;;
19137;SDS011;68178;52.188;5.598;2023-10-31T10:04:44;0.45;;;0.45;;
19137;SDS011;68178;52.188;5.598;2023-10-31T10:07:13;0.85;;;0.63;;
19137;SDS011;68178;52.188;5.598;2023-10-31T10:09:42;0.57;;;0.57;;
19137;SDS011;68178;52.188;5.598;2023-10-31T10:12:08;3.08;;;1.98;;
19137;SDS011;68178;52.188;5.598;2023-10-31T10:14:45;9.88;;;1.77;;
19137;SDS011;68178;52.188;5.598;2023-10-31T10:17:20;0.80;;;0.50;;
19137;SDS011;68178;52.188;5.598;2023-10-31T10:19:47;0.98;;;0.88;;
19137;SDS011;68178;52.188;5.598;2023-10-31T10:22:13;0.80;;;0.80;;
19137;SDS011;68178;52.188;5.598;2023-10-31T10:24:40;0.20;;;0.20;;
19137;SDS011;68178;52.188;5.598;2023-10-31T10:27:09;5.93;;;1.65;;
19137;SDS011;68178;52.188;5.598;2023-10-31T10:29:35;0.28;;;0.28;;
19137;SDS011;68178;52.188;5.598;2023-10-31T10:32:06;0.17;;;0.17;;
19137;SDS011;68178;52.188;5.598;2023-10-31T10:34:33;0.77;;;0.70;;
19137;SDS011;68178;52.188;5.598;2023-10-31T10:36:59;0.90;;;0.70;;
19137;SDS011;68178;52.188;5.598;2023-10-31T10:39:26;1.73;;;0.40;;
19137;SDS011;68178;52.188;5.598;2023-10-31T10:41:55;1.98;;;1.45;;
19137;SDS011;68178;52.188;5.598;2023-10-31T10:44:26;1.10;;;0.55;;
19137;SDS011;68178;52.188;5.598;2023-10-31T10:46:57;0.38;;;0.38;;
19137;SDS011;68178;52.188;5.598;2023-10-31T10:49:26;1.40;;;0.45;;
19137;SDS011;68178;52.188;5.598;2023-10-31T10:51:55;0.22;;;0.22;;
19137;SDS011;68178;52.188;5.598;2023-10-31T11:00:03;1.25;;;0.77;;
19137;SDS011;68178;52.188;5.598;2023-10-31T11:02:31;0.80;;;0.75;;
19137;SDS011;68178;52.188;5.598;2023-10-31T11:04:58;0.88;;;0.50;;
19137;SDS011;68178;52.188;5.598;2023-10-31T11:07:24;0.82;;;0.55;;
19137;SDS011;68178;52.188;5.598;2023-10-31T11:09:57;0.35;;;0.35;;
19137;SDS011;68178;52.188;5.598;2023-10-31T11:12:26;0.10;;;0.10;;
19137;SDS011;68178;52.188;5.598;2023-10-31T11:14:54;1.05;;;0.32;;
19137;SDS011;68178;52.188;5.598;2023-10-31T11:17:36;3.03;;;1.30;;
19137;SDS011;68178;52.188;5.598;2023-10-31T11:20:04;0.25;;;0.25;;
19137;SDS011;68178;52.188;5.598;2023-10-31T11:22:42;0.20;;;0.20;;
19137;SDS011;68178;52.188;5.598;2023-10-31T11:25:20;0.45;;;0.30;;
19137;SDS011;68178;52.188;5.598;2023-10-31T11:27:49;3.85;;;1.17;;
19137;SDS011;68178;52.188;5.598;2023-10-31T11:30:22;0.20;;;0.20;;
19137;SDS011;68178;52.188;5.598;2023-10-31T11:32:52;2.22;;;0.80;;
19137;SDS011;68178;52.188;5.598;2023-10-31T11:35:19;0.63;;;0.63;;
19137;SDS011;68178;52.188;5.598;2023-10-31T11:37:49;0.40;;;0.38;;
19137;SDS011;68178;52.188;5.598;2023-10-31T11:40:38;2.28;;;1.20;;
19137;SDS011;68178;52.188;5.598;2023-10-31T11:43:13;0.30;;;0.28;;
19137;SDS011;68178;52.188;5.598;2023-10-31T11:45:42;0.20;;;0.20;;
19137;SDS011;68178;52.188;5.598;2023-10-31T11:48:12;0.40;;;0.40;;
19137;SDS011;68178;52.188;5.598;2023-10-31T11:50:38;7.05;;;1.08;;
19137;SDS011;68178;52.188;5.598;2023-10-31T11:53:08;0.25;;;0.25;;
19137;SDS011;68178;52.188;5.598;2023-10-31T11:55:43;0.30;;;0.30;;
19137;SDS011;68178;52.188;5.598;2023-10-31T11:58:16;1.33;;;1.08;;
19137;SDS011;68178;52.188;5.598;2023-10-31T12:00:42;0.20;;;0.20;;
19137;SDS011;68178;52.188;5.598;2023-10-31T12:03:07;5.82;;;1.05;;
19137;SDS011;68178;52.188;5.598;2023-10-31T12:05:33;0.65;;;0.65;;
19137;SDS011;68178;52.188;5.598;2023-10-31T12:07:58;0.47;;;0.32;;
19137;SDS011;68178;52.188;5.598;2023-10-31T12:10:25;0.43;;;0.25;;
19137;SDS011;68178;52.188;5.598;2023-10-31T12:12:55;0.20;;;0.20;;
19137;SDS011;68178;52.188;5.598;2023-10-31T12:15:21;0.03;;;0.03;;
19137;SDS011;68178;52.188;5.598;2023-10-31T12:17:47;0.00;;;0.00;;
19137;SDS011;68178;52.188;5.598;2023-10-31T12:20:16;0.17;;;0.17;;
19137;SDS011;68178;52.188;5.598;2023-10-31T12:22:42;0.43;;;0.43;;
19137;SDS011;68178;52.188;5.598;2023-10-31T12:25:09;1.45;;;0.55;;
19137;SDS011;68178;52.188;5.598;2023-10-31T12:27:48;0.00;;;0.00;;
19137;SDS011;68178;52.188;5.598;2023-10-31T12:30:20;0.32;;;0.32;;
19137;SDS011;68178;52.188;5.598;2023-10-31T12:32:55;0.00;;;0.00;;
19137;SDS011;68178;52.188;5.598;2023-10-31T12:35:25;0.35;;;0.32;;
19137;SDS011;68178;52.188;5.598;2023-10-31T12:37:51;0.00;;;0.00;;
19137;SDS011;68178;52.188;5.598;2023-10-31T12:40:18;0.00;;;0.00;;
19137;SDS011;68178;52.188;5.598;2023-10-31T12:42:45;0.00;;;0.00;;
19137;SDS011;68178;52.188;5.598;2023-10-31T12:45:12;0.65;;;0.40;;
19137;SDS011;68178;52.188;5.598;2023-10-31T12:47:38;0.00;;;0.00;;
19137;SDS011;68178;52.188;5.598;2023-10-31T12:50:16;0.00;;;0.00;;
19137;SDS011;68178;52.188;5.598;2023-10-31T12:52:49;0.10;;;0.10;;
19137;SDS011;68178;52.188;5.598;2023-10-31T12:55:17;8.32;;;0.28;;
19137;SDS011;68178;52.188;5.598;2023-10-31T12:57:44;0.10;;;0.10;;
19137;SDS011;68178;52.188;5.598;2023-10-31T13:00:11;1.30;;;0.93;;
19137;SDS011;68178;52.188;5.598;2023-10-31T13:02:38;0.00;;;0.00;;
19137;SDS011;68178;52.188;5.598;2023-10-31T13:05:17;0.08;;;0.08;;
19137;SDS011;68178;52.188;5.598;2023-10-31T13:07:49;0.10;;;0.10;;
19137;SDS011;68178;52.188;5.598;2023-10-31T13:10:17;0.68;;;0.68;;
19137;SDS011;68178;52.188;5.598;2023-10-31T13:12:44;1.45;;;1.35;;
19137;SDS011;68178;52.188;5.598;2023-10-31T13:15:11;5.03;;;2.65;;
19137;SDS011;68178;52.188;5.598;2023-10-31T13:17:40;2.83;;;1.98;;
19137;SDS011;68178;52.188;5.598;2023-10-31T13:20:08;1.92;;;1.83;;
19137;SDS011;68178;52.188;5.598;2023-10-31T13:22:35;8.80;;;3.55;;
19137;SDS011;68178;52.188;5.598;2023-10-31T13:25:04;1.55;;;1.45;;
19137;SDS011;68178;52.188;5.598;2023-10-31T13:27:32;3.70;;;2.80;;
19137;SDS011;68178;52.188;5.598;2023-10-31T13:30:00;10.82;;;3.55;;
19137;SDS011;68178;52.188;5.598;2023-10-31T13:32:26;2.17;;;1.98;;
19137;SDS011;68178;52.188;5.598;2023-10-31T13:34:51;7.93;;;2.00;;
19137;SDS011;68178;52.188;5.598;2023-10-31T13:37:17;2.55;;;2.30;;
19137;SDS011;68178;52.188;5.598;2023-10-31T13:39:42;5.15;;;3.95;;
19137;SDS011;68178;52.188;5.598;2023-10-31T13:42:08;3.10;;;2.63;;
19137;SDS011;68178;52.188;5.598;2023-10-31T13:44:35;8.30;;;4.05;;
19137;SDS011;68178;52.188;5.598;2023-10-31T13:47:01;6.05;;;4.50;;
19137;SDS011;68178;52.188;5.598;2023-10-31T13:49:27;4.82;;;3.80;;
19137;SDS011;68178;52.188;5.598;2023-10-31T13:51:53;4.70;;;4.07;;
19137;SDS011;68178;52.188;5.598;2023-10-31T13:54:18;2.97;;;1.92;;
19137;SDS011;68178;52.188;5.598;2023-10-31T13:56:44;3.50;;;2.38;;
19137;SDS011;68178;52.188;5.598;2023-10-31T13:59:10;2.80;;;2.47;;
19137;SDS011;68178;52.188;5.598;2023-10-31T14:01:36;6.55;;;2.65;;
19137;SDS011;68178;52.188;5.598;2023-10-31T14:04:02;6.55;;;4.07;;
19137;SDS011;68178;52.188;5.598;2023-10-31T14:06:27;16.75;;;3.45;;
19137;SDS011;68178;52.188;5.598;2023-10-31T14:09:01;3.83;;;2.78;;
19137;SDS011;68178;52.188;5.598;2023-10-31T14:11:31;2.88;;;2.60;;
19137;SDS011;68178;52.188;5.598;2023-10-31T14:13:58;0.77;;;0.65;;
19137;SDS011;68178;52.188;5.598;2023-10-31T14:16:28;3.30;;;2.63;;
19137;SDS011;68178;52.188;5.598;2023-10-31T14:18:54;1.85;;;1.75;;
19137;SDS011;68178;52.188;5.598;2023-10-31T14:21:20;2.13;;;2.00;;
19137;SDS011;68178;52.188;5.598;2023-10-31T14:23:46;18.08;;;3.17;;
19137;SDS011;68178;52.188;5.598;2023-10-31T14:26:18;6.78;;;3.10;;
19137;SDS011;68178;52.188;5.598;2023-10-31T14:28:47;2.83;;;2.58;;
19137;SDS011;68178;52.188;5.598;2023-10-31T14:31:14;13.38;;;3.95;;
19137;SDS011;68178;52.188;5.598;2023-10-31T14:33:40;12.43;;;3.42;;
19137;SDS011;68178;52.188;5.598;2023-10-31T14:36:06;1.67;;;1.58;;
19137;SDS011;68178;52.188;5.598;2023-10-31T14:38:38;3.83;;;2.55;;
19137;SDS011;68178;52.188;5.598;2023-10-31T14:41:04;2.38;;;2.17;;
19137;SDS011;68178;52.188;5.598;2023-10-31T14:43:30;2.88;;;1.92;;
19137;SDS011;68178;52.188;5.598;2023-10-31T14:45:56;2.70;;;2.47;;
19137;SDS011;68178;52.188;5.598;2023-10-31T14:48:22;3.78;;;3.47;;
19137;SDS011;68178;52.188;5.598;2023-10-31T14:50:48;10.55;;;3.13;;